»·PEaware :: UAL576 KSNA-KCPR

UAL576 :: KSNA-KCPR

FLIGHT INFORMATION

Flight Status: Arrived
Operator:
United Airlines
More flights by this operator :: More flights under this callsign
Pilot: Anonymous 8274 (8274)
Aircraft: BOEING 737-200
(B732)
More flights by this aircraft type
Origin: KSNA John Wayne-Orange Co
United States
Destination: KCPR Natrona Co Intl
United States
More flights between these airports :: More routes between these airports
Route: +MUSEL8 DAG J9 LAS J76 CORKR J11 FREDD J146 HBU J206 DBL CKW V26 CHOMP
File this flight plan on PilotEdge
Remarks: Scenic rouring intentional
Altitude:
(Current/Filed)
31,000ft
Speed:
(Current/Filed)
460kts
Departed: 28-Jul-19 06:55 PM
Arrived: 28-Jul-19 09:22 PM
Distance/Time
Traveled:
770nm/2:27
Distance/Time
To Go:
Arrived

Flight Plot

Page will automatically refresh every two minutes.


Map Options




Map Legend


Flown Route
Filed Route
Departure Airport
Arrival Airport
Navaid (VOR, NDB)
Fix

Horizontal Profiles

Position Reports

Time Latitude Longitude Heading Altitude Ground
Speed
28-Jul-19 18:02 33.681165 -117.861148 118 65ft 0kts
28-Jul-19 18:03 33.681165 -117.861148 118 65ft 0kts
28-Jul-19 18:04 33.681165 -117.861148 118 65ft 0kts
28-Jul-19 18:05 33.681165 -117.861148 118 65ft 0kts
28-Jul-19 18:06 33.681165 -117.861148 118 65ft 0kts
28-Jul-19 18:07 33.681165 -117.861148 118 65ft 0kts
28-Jul-19 18:08 33.681165 -117.861148 118 65ft 0kts
28-Jul-19 18:09 33.681165 -117.861148 118 65ft 0kts
28-Jul-19 18:10 33.681165 -117.861148 118 65ft 0kts
28-Jul-19 18:11 33.681165 -117.861148 118 65ft 0kts
28-Jul-19 18:12 33.681165 -117.861148 118 65ft 0kts
28-Jul-19 18:13 33.681165 -117.861148 118 65ft 0kts
28-Jul-19 18:14 33.681165 -117.861148 118 65ft 0kts
28-Jul-19 18:15 33.681165 -117.861148 118 65ft 0kts
28-Jul-19 18:16 33.681165 -117.861148 118 65ft 0kts
28-Jul-19 18:17 33.681165 -117.861148 118 65ft 0kts
28-Jul-19 18:18 33.681165 -117.861148 118 65ft 0kts
28-Jul-19 18:19 33.681165 -117.861148 118 65ft 0kts
28-Jul-19 18:20 33.681165 -117.861148 118 65ft 0kts
28-Jul-19 18:21 33.681165 -117.861148 118 65ft 0kts
28-Jul-19 18:22 33.681165 -117.861148 118 65ft 0kts
28-Jul-19 18:23 33.681165 -117.861148 118 65ft 0kts
28-Jul-19 18:24 33.681165 -117.861148 118 65ft 0kts
28-Jul-19 18:25 33.681165 -117.861148 118 65ft 0kts
28-Jul-19 18:26 33.681165 -117.861148 118 65ft 0kts
28-Jul-19 18:27 33.681165 -117.861148 118 65ft 0kts
28-Jul-19 18:28 33.681165 -117.861148 118 65ft 0kts
28-Jul-19 18:29 33.681165 -117.861148 118 65ft 0kts
28-Jul-19 18:30 33.681165 -117.861148 118 65ft 0kts
28-Jul-19 18:31 33.681165 -117.861148 118 65ft 0kts
28-Jul-19 18:32 33.681165 -117.861148 118 65ft 0kts
28-Jul-19 18:33 33.681165 -117.861148 118 65ft 0kts
28-Jul-19 18:34 33.681165 -117.861148 118 65ft 0kts
28-Jul-19 18:35 33.681165 -117.861148 118 65ft 0kts
28-Jul-19 18:36 33.681165 -117.861148 118 65ft 0kts
28-Jul-19 18:37 33.681165 -117.861148 118 65ft 0kts
28-Jul-19 18:38 33.681165 -117.861148 118 65ft 0kts
28-Jul-19 18:39 33.681207 -117.861239 118 65ft 2kts
28-Jul-19 18:40 33.681629 -117.861666 186 65ft 2kts
28-Jul-19 18:41 33.681772 -117.861611 207 65ft 0kts
28-Jul-19 18:42 33.681772 -117.861612 207 65ft 0kts
28-Jul-19 18:43 33.681772 -117.861612 207 65ft 0kts
28-Jul-19 18:44 33.681772 -117.861612 207 65ft 0kts
28-Jul-19 18:45 33.681772 -117.861612 207 65ft 0kts
28-Jul-19 18:46 33.681772 -117.861612 207 65ft 0kts
28-Jul-19 18:47 33.681772 -117.861612 207 65ft 0kts
28-Jul-19 18:48 33.680672 -117.862306 217 65ft 6kts
28-Jul-19 18:49 33.681134 -117.864137 297 65ft 0kts
28-Jul-19 18:50 33.681153 -117.864181 297 65ft 0kts
28-Jul-19 18:51 33.681153 -117.864181 297 65ft 0kts
28-Jul-19 18:52 33.681153 -117.864181 297 65ft 0kts
28-Jul-19 18:53 33.681306 -117.865287 207 65ft 0kts
28-Jul-19 18:54 33.656163 -117.881128 209 776ft 149kts
28-Jul-19 18:55 33.610562 -117.892903 188 2136ft 208kts
28-Jul-19 18:56 33.547637 -117.902158 189 4474ft 252kts
28-Jul-19 18:57 33.473337 -117.910890 188 7068ft 280kts
28-Jul-19 18:58 33.420904 -117.965214 258 8011ft 276kts
28-Jul-19 18:59 33.407206 -118.053560 261 7996ft 263kts
28-Jul-19 19:00 33.448146 -118.105936 1 8007ft 277kts
28-Jul-19 19:01 33.527661 -118.095258 2 10347ft 289kts
28-Jul-19 19:02 33.613060 -118.087355 2 12279ft 324kts
28-Jul-19 19:03 33.704722 -118.070023 9 14515ft 339kts
28-Jul-19 19:04 33.801127 -118.049935 13 16187ft 363kts
28-Jul-19 19:05 33.877077 -117.973342 45 18253ft 369kts
28-Jul-19 19:06 33.957769 -117.899025 32 20333ft 363kts
28-Jul-19 19:07 34.036593 -117.822272 40 22072ft 364kts
28-Jul-19 19:08 34.119059 -117.746285 45 23237ft 377kts
28-Jul-19 19:09 34.183840 -117.644093 54 24130ft 392kts
28-Jul-19 19:10 34.253344 -117.535568 45 24536ft 417kts
28-Jul-19 19:11 34.335644 -117.435848 48 25562ft 421kts
28-Jul-19 19:12 34.412145 -117.325681 52 26384ft 428kts
28-Jul-19 19:13 34.493413 -117.219881 41 27155ft 434kts
28-Jul-19 19:14 34.580738 -117.119921 46 27859ft 439kts
28-Jul-19 19:15 34.661132 -117.005865 52 28505ft 443kts
28-Jul-19 19:16 34.738478 -116.888112 50 29135ft 447kts
28-Jul-19 19:17 34.820091 -116.774973 48 30170ft 439kts
28-Jul-19 19:18 34.901832 -116.662803 49 30551ft 446kts
28-Jul-19 19:19 34.983364 -116.548496 49 30949ft 450kts
28-Jul-19 19:20 35.071673 -116.442094 47 30945ft 448kts
28-Jul-19 19:21 35.156937 -116.331842 46 30944ft 449kts
28-Jul-19 19:22 35.230924 -116.237006 46 30945ft 450kts
28-Jul-19 19:23 35.316482 -116.126958 46 30939ft 451kts
28-Jul-19 19:24 35.403452 -116.015199 45 30913ft 453kts
28-Jul-19 19:25 35.490388 -115.903341 45 30936ft 453kts
28-Jul-19 19:26 35.577389 -115.791414 45 30956ft 453kts
28-Jul-19 19:27 35.664799 -115.680073 41 30954ft 454kts
28-Jul-19 19:28 35.757597 -115.574850 43 30954ft 455kts
28-Jul-19 19:29 35.845020 -115.462164 46 30954ft 456kts
28-Jul-19 19:30 35.930168 -115.349907 45 30944ft 456kts
28-Jul-19 19:31 36.017896 -115.237260 44 30934ft 457kts
28-Jul-19 19:33 36.111521 -115.144856 37 30933ft 454kts
28-Jul-19 19:34 36.142978 -115.004645 113 30943ft 447kts
28-Jul-19 19:35 36.063548 -114.892704 114 30941ft 443kts
28-Jul-19 19:36 36.078209 -114.745781 77 30950ft 445kts
28-Jul-19 19:37 36.083274 -114.592878 92 30945ft 447kts
28-Jul-19 19:38 36.078420 -114.438819 92 30946ft 449kts
28-Jul-19 19:39 36.074483 -114.287653 91 30944ft 451kts
28-Jul-19 19:40 36.072762 -114.132188 90 31020ft 450kts
28-Jul-19 19:41 36.072537 -113.977781 90 31131ft 449kts
28-Jul-19 19:42 36.072556 -113.822812 90 31118ft 451kts
28-Jul-19 19:43 36.071791 -113.667422 90 31119ft 453kts
28-Jul-19 19:44 36.069999 -113.511439 91 31119ft 454kts
28-Jul-19 19:45 36.067263 -113.354725 91 31119ft 455kts
28-Jul-19 19:46 36.064173 -113.201581 91 31119ft 456kts
28-Jul-19 19:47 36.060866 -113.044144 91 31119ft 457kts
28-Jul-19 19:48 36.060178 -112.886867 84 31200ft 456kts
28-Jul-19 19:49 36.073460 -112.729483 84 31254ft 456kts
28-Jul-19 19:50 36.083506 -112.572198 86 31247ft 457kts
28-Jul-19 19:51 36.123580 -112.429946 35 31243ft 448kts
28-Jul-19 19:51 36.221491 -112.401774 359 31252ft 438kts
28-Jul-19 19:53 36.364023 -112.394974 0 31247ft 440kts
28-Jul-19 19:54 36.485818 -112.385359 1 31247ft 442kts
28-Jul-19 19:54 36.588125 -112.375643 1 31210ft 444kts
28-Jul-19 19:56 36.731825 -112.361897 9 31186ft 448kts
28-Jul-19 19:56 36.809716 -112.285423 52 31193ft 456kts
28-Jul-19 19:57 36.892185 -112.165551 42 31191ft 454kts
28-Jul-19 19:58 36.987484 -112.063937 36 31189ft 451kts
28-Jul-19 19:59 37.083727 -111.962257 41 31151ft 452kts
28-Jul-19 20:01 37.173427 -111.822683 59 31154ft 454kts
28-Jul-19 20:01 37.199664 -111.696475 86 31186ft 454kts
28-Jul-19 20:02 37.194437 -111.538470 97 31178ft 454kts
28-Jul-19 20:03 37.175657 -111.381637 98 31160ft 455kts
28-Jul-19 20:04 37.166260 -111.230414 89 31150ft 454kts
28-Jul-19 20:05 37.185954 -111.075321 71 31173ft 452kts
28-Jul-19 20:06 37.242240 -110.935871 53 31236ft 448kts
28-Jul-19 20:07 37.321797 -110.816371 45 31259ft 446kts
28-Jul-19 20:08 37.403478 -110.698941 50 31256ft 448kts
28-Jul-19 20:09 37.464557 -110.562534 73 31251ft 451kts
28-Jul-19 20:10 37.473981 -110.405614 89 31256ft 452kts
28-Jul-19 20:11 37.472741 -110.258531 88 31256ft 453kts
28-Jul-19 20:12 37.487025 -110.100665 75 31266ft 453kts
28-Jul-19 20:13 37.530501 -109.952513 61 31304ft 451kts
28-Jul-19 20:14 37.590166 -109.814355 59 31323ft 450kts
28-Jul-19 20:15 37.642585 -109.669366 69 31320ft 455kts
28-Jul-19 20:16 37.675134 -109.514180 76 31321ft 459kts
28-Jul-19 20:17 37.703094 -109.356394 73 31321ft 462kts
28-Jul-19 20:18 37.739276 -109.208597 70 31320ft 462kts
28-Jul-19 20:19 37.778913 -109.053597 71 31276ft 465kts
28-Jul-19 20:20 37.816759 -108.896909 71 31266ft 467kts
28-Jul-19 20:21 37.874199 -108.752833 67 31294ft 464kts
28-Jul-19 20:22 37.923574 -108.602115 64 31311ft 463kts
28-Jul-19 20:23 37.974882 -108.452705 63 31310ft 460kts
28-Jul-19 20:24 38.022426 -108.314229 64 31309ft 458kts
28-Jul-19 20:25 38.072963 -108.166312 64 31370ft 454kts
28-Jul-19 20:26 38.120745 -108.028072 63 31514ft 449kts
28-Jul-19 20:27 38.171509 -107.882953 63 31542ft 448kts
28-Jul-19 20:28 38.221408 -107.738009 64 31539ft 449kts
28-Jul-19 20:29 38.270803 -107.591501 64 31495ft 450kts
28-Jul-19 20:30 38.318855 -107.443842 65 31417ft 453kts
28-Jul-19 20:31 38.363227 -107.304655 65 31348ft 454kts
28-Jul-19 20:32 38.413139 -107.156413 64 31283ft 455kts
28-Jul-19 20:33 38.462725 -107.008101 64 31314ft 454kts
28-Jul-19 20:34 38.544890 -106.904645 2 31497ft 418kts
28-Jul-19 20:35 38.630702 -106.974861 288 31398ft 391kts
28-Jul-19 20:36 38.718457 -107.042011 6 31277ft 418kts
28-Jul-19 20:37 38.825216 -106.982429 6 31382ft 415kts
28-Jul-19 20:38 38.939701 -106.963072 2 31458ft 416kts
28-Jul-19 20:39 39.054784 -106.944459 2 31585ft 419kts
28-Jul-19 20:40 39.162319 -106.926946 2 31572ft 424kts
28-Jul-19 20:41 39.279632 -106.908085 2 31573ft 428kts
28-Jul-19 20:42 39.397776 -106.889288 1 31573ft 431kts
28-Jul-19 20:43 39.515308 -106.892345 340 31575ft 420kts
28-Jul-19 20:44 39.627753 -106.935436 338 31449ft 425kts
28-Jul-19 20:45 39.738291 -106.989713 337 31353ft 428kts
28-Jul-19 20:46 39.854983 -107.024460 346 31345ft 435kts
28-Jul-19 20:47 39.974778 -107.047470 345 31337ft 435kts
28-Jul-19 20:48 40.093533 -107.076304 342 31338ft 433kts
28-Jul-19 20:49 40.198695 -107.106928 341 31332ft 433kts
28-Jul-19 20:50 40.316189 -107.140814 342 31302ft 433kts
28-Jul-19 20:51 40.433453 -107.174541 342 31301ft 432kts
28-Jul-19 20:52 40.550370 -107.207890 342 31301ft 431kts
28-Jul-19 20:53 40.661454 -107.239371 342 31304ft 429kts
28-Jul-19 20:54 40.777405 -107.271844 342 31357ft 426kts
28-Jul-19 20:55 40.892062 -107.303540 342 31367ft 424kts
28-Jul-19 20:56 41.007567 -107.335060 342 31365ft 422kts
28-Jul-19 20:57 41.102589 -107.360562 342 31365ft 421kts
28-Jul-19 20:58 41.215058 -107.390107 342 31365ft 420kts
28-Jul-19 20:59 41.328526 -107.422580 336 31357ft 414kts
28-Jul-19 21:00 41.437373 -107.469937 335 31327ft 408kts
28-Jul-19 21:01 41.545704 -107.510525 340 30480ft 401kts
28-Jul-19 21:02 41.652628 -107.543975 338 28457ft 390kts
28-Jul-19 21:03 41.755560 -107.583412 343 26461ft 384kts
28-Jul-19 21:04 41.852950 -107.520729 39 24362ft 422kts
28-Jul-19 21:05 41.936247 -107.411256 39 22368ft 414kts
28-Jul-19 21:06 42.019244 -107.306939 33 20524ft 399kts
28-Jul-19 21:07 42.105055 -107.237005 24 18593ft 387kts
28-Jul-19 21:08 42.198767 -107.170559 27 16717ft 373kts
28-Jul-19 21:09 42.285295 -107.097768 29 14891ft 362kts
28-Jul-19 21:10 42.368352 -107.025248 34 13214ft 350kts
28-Jul-19 21:11 42.439807 -106.949864 35 13025ft 303kts
28-Jul-19 21:12 42.505432 -106.877970 37 13039ft 307kts
28-Jul-19 21:13 42.571183 -106.804363 34 11667ft 304kts
28-Jul-19 21:14 42.637322 -106.737989 34 9799ft 289kts
28-Jul-19 21:15 42.699906 -106.678770 34 8987ft 251kts
28-Jul-19 21:16 42.759203 -106.633341 23 7875ft 248kts
28-Jul-19 21:17 42.812513 -106.581097 48 7198ft 218kts
28-Jul-19 21:18 42.844768 -106.538945 44 6603ft 138kts
28-Jul-19 21:19 42.872685 -106.502074 44 5876ft 140kts
28-Jul-19 21:20 42.900048 -106.466290 43 5327ft 111kts
28-Jul-19 21:21 42.909058 -106.453164 109 5327ft 14kts
28-Jul-19 21:22 42.906852 -106.454650 223 5327ft 4kts
28-Jul-19 21:23 42.905058 -106.456948 223 5327ft 14kts
28-Jul-19 21:24 42.902389 -106.460448 223 5327ft 13kts
28-Jul-19 21:25 42.899198 -106.464630 222 5327ft 16kts

Navigation Log

Ident Type
Flight plan parsing failed, navigation log unavailable